Dickey, North Dakota
Current Conditions -  °F | °C
As of 2:56 AM on Thursday 27 Nov 2014 (Local Time) from KJMS Reporting Station
Clear Clear  
Wind Chill: -23°   Ceiling: Unl
Heat Index: -23°   Visibility: 10mi
Dew Point: -28°   Wind: 0mph
Humidity: 78%   Direction: NA
Pressure: 30.48"   Gusts: NA
Location:  46.54°N, 98.47°W
Report Text: KJMS 270856Z AUTO 00000KT 10SM CLR M31/M33 A3048 RMK AO2 SLP374 T13061333 55002
Loading
Personal Weather Stations






























Interactive Weather Map New forecast layout! Learn more

10-Day Weather Forecast

Advertisements
Track Severe Weather on mobile